Time;durP1;ratioP1;P1;durP2;ratioP2;P2;SDS_P1;SDS_P2;PMS_P1;PMS_P2;Temp;Humidity;BMP_temperature;BMP_pressure;BME280_temperature;BME280_humidity;BME280_pressure;Samples;Min_cycle;Max_cycle;Signal;HPM_P1;HPM_P2
2023/08/20 00:01:45;;;;;;;8.37;7.87;;;;;;;;;;5092490;28;20420;-62
2023/08/20 00:04:11;;;;;;;11.43;8.50;;;;;;;;;;5092560;28;20475;-61
2023/08/20 00:06:37;;;;;;;9.40;8.70;;;;;;;;;;5092462;28;20439;-62
2023/08/20 00:09:06;;;;;;;8.40;7.70;;;;;;;;;;5092488;28;20436;-61
2023/08/20 00:11:35;;;;;;;8.83;8.03;;;;;;;;;;5092315;28;20454;-62
2023/08/20 00:14:01;;;;;;;9.47;8.33;;;;;;;;;;5092469;28;20939;-61
2023/08/20 00:16:27;;;;;;;10.00;8.10;;;;;;;;;;5092269;28;20418;-61
2023/08/20 00:18:53;;;;;;;7.83;7.23;;;;;;;;;;5092434;28;20429;-62
2023/08/20 00:21:19;;;;;;;9.90;8.33;;;;;;;;;;5092219;28;20428;-61
2023/08/20 00:23:45;;;;;;;8.50;7.90;;;;;;;;;;5092227;28;20521;-61
2023/08/20 00:26:12;;;;;;;8.17;7.50;;;;;;;;;;5092389;28;20843;-61
2023/08/20 00:28:38;;;;;;;8.50;7.97;;;;;;;;;;5092305;28;20465;-61
2023/08/20 00:31:04;;;;;;;7.80;7.40;;;;;;;;;;5092176;28;20821;-61
2023/08/20 00:33:31;;;;;;;10.60;8.10;;;;;;;;;;5092185;28;20892;-61
2023/08/20 00:35:57;;;;;;;9.33;8.43;;;;;;;;;;5095352;28;20408;-62
2023/08/20 00:38:23;;;;;;;15.50;8.90;;;;;;;;;;5096085;28;20432;-62
2023/08/20 00:40:49;;;;;;;8.13;7.40;;;;;;;;;;5095896;28;20407;-61
2023/08/20 00:43:15;;;;;;;14.37;8.90;;;;;;;;;;5095841;28;20824;-61
2023/08/20 00:45:44;;;;;;;9.57;7.83;;;;;;;;;;5095868;28;20425;-62
2023/08/20 00:48:11;;;;;;;10.90;8.10;;;;;;;;;;5095483;28;20460;-61
2023/08/20 00:50:38;;;;;;;8.80;8.20;;;;;;;;;;5095654;28;20501;-62
2023/08/20 00:53:04;;;;;;;10.00;9.10;;;;;;;;;;5095631;28;20514;-62
2023/08/20 00:55:30;;;;;;;9.07;8.40;;;;;;;;;;5095843;28;20432;-61
2023/08/20 00:57:56;;;;;;;8.43;7.83;;;;;;;;;;5095566;28;20846;-62
2023/08/20 01:00:23;;;;;;;8.80;7.60;;;;;;;;;;5095598;28;20435;-62
2023/08/20 01:02:50;;;;;;;18.03;8.80;;;;;;;;;;5095545;28;20425;-61
2023/08/20 01:05:16;;;;;;;9.07;8.37;;;;;;;;;;5094309;28;21011;-61
2023/08/20 01:07:42;;;;;;;9.73;8.80;;;;;;;;;;5095458;28;20925;-62
2023/08/20 01:10:14;;;;;;;9.97;8.97;;;;;;;;;;5095315;28;20405;-62
2023/08/20 01:12:41;;;;;;;9.73;9.03;;;;;;;;;;5095190;28;20784;-61
2023/08/20 01:15:13;;;;;;;9.07;8.37;;;;;;;;;;5095290;28;20409;-61
2023/08/20 01:17:41;;;;;;;9.10;8.20;;;;;;;;;;5093841;28;20751;-61
2023/08/20 01:20:08;;;;;;;9.53;8.63;;;;;;;;;;5095207;28;20417;-62
2023/08/20 01:22:37;;;;;;;9.17;8.33;;;;;;;;;;5095125;28;20435;-62
2023/08/20 01:25:12;;;;;;;10.00;9.10;;;;;;;;;;5095137;28;20420;-61
2023/08/20 01:27:57;;;;;;;10.03;9.20;;;;;;;;;;5095113;28;20438;-62
2023/08/20 01:30:26;;;;;;;9.23;8.63;;;;;;;;;;5094999;28;20968;-61
2023/08/20 01:32:54;;;;;;;10.63;8.47;;;;;;;;;;5094850;28;20553;-61
2023/08/20 01:35:20;;;;;;;10.27;9.47;;;;;;;;;;5094948;28;20419;-61
2023/08/20 01:37:45;;;;;;;10.50;9.67;;;;;;;;;;5094817;28;20424;-61
2023/08/20 01:40:12;;;;;;;9.37;8.57;;;;;;;;;;5093621;28;20443;-61
2023/08/20 01:42:38;;;;;;;9.80;8.83;;;;;;;;;;5094776;28;20929;-61
2023/08/20 01:45:05;;;;;;;12.90;9.67;;;;;;;;;;5094628;28;20832;-62
2023/08/20 01:47:31;;;;;;;10.83;9.73;;;;;;;;;;5093523;28;20428;-62
2023/08/20 01:49:58;;;;;;;10.57;9.77;;;;;;;;;;5094547;28;20916;-61
2023/08/20 01:52:24;;;;;;;12.77;10.17;;;;;;;;;;5094656;28;20467;-61
2023/08/20 01:54:53;;;;;;;10.10;9.30;;;;;;;;;;5094586;28;20416;-62
2023/08/20 01:57:19;;;;;;;9.97;9.10;;;;;;;;;;5094519;28;20420;-61
2023/08/20 01:59:45;;;;;;;11.67;9.67;;;;;;;;;;5094572;28;20446;-61
2023/08/20 02:02:11;;;;;;;22.60;10.57;;;;;;;;;;5094604;28;20426;-61
2023/08/20 02:04:37;;;;;;;10.77;9.30;;;;;;;;;;5094293;28;20445;-61
2023/08/20 02:07:03;;;;;;;12.83;10.10;;;;;;;;;;5094249;28;20413;-61
2023/08/20 02:09:31;;;;;;;10.77;9.70;;;;;;;;;;5094258;28;20447;-61
2023/08/20 02:11:57;;;;;;;13.63;10.70;;;;;;;;;;5094190;28;20555;-61
2023/08/20 02:14:27;;;;;;;11.63;10.13;;;;;;;;;;5094167;28;20486;-61
2023/08/20 02:16:53;;;;;;;11.20;10.20;;;;;;;;;;5094011;28;20413;-61
2023/08/20 02:19:18;;;;;;;11.43;9.50;;;;;;;;;;5093872;28;20463;-62
2023/08/20 02:21:44;;;;;;;10.77;9.77;;;;;;;;;;5094133;28;20409;-61
2023/08/20 02:24:13;;;;;;;13.90;9.60;;;;;;;;;;5093946;28;20855;-61
2023/08/20 02:26:41;;;;;;;11.20;9.03;;;;;;;;;;5093962;28;20410;-61
2023/08/20 02:29:09;;;;;;;9.70;8.90;;;;;;;;;;5093734;28;20478;-61
2023/08/20 02:31:38;;;;;;;12.13;9.23;;;;;;;;;;5093753;28;20471;-61
2023/08/20 02:34:04;;;;;;;12.57;9.53;;;;;;;;;;5093824;28;20451;-62
2023/08/20 02:36:32;;;;;;;10.43;9.53;;;;;;;;;;5093749;28;20439;-61
2023/08/20 02:38:58;;;;;;;10.40;9.40;;;;;;;;;;5093568;28;21079;-61
2023/08/20 02:41:24;;;;;;;9.00;8.37;;;;;;;;;;5093739;28;20447;-62
2023/08/20 02:43:50;;;;;;;10.00;9.20;;;;;;;;;;5093652;28;20449;-61
2023/08/20 02:46:20;;;;;;;11.97;9.77;;;;;;;;;;5093517;28;20801;-61
2023/08/20 02:48:46;;;;;;;13.73;9.70;;;;;;;;;;5093467;28;20939;-61
2023/08/20 02:51:12;;;;;;;10.70;9.80;;;;;;;;;;5093330;28;20604;-61
2023/08/20 02:53:41;;;;;;;9.77;9.07;;;;;;;;;;5093447;28;20462;-61
2023/08/20 02:56:07;;;;;;;10.97;9.63;;;;;;;;;;5093202;28;20417;-61
2023/08/20 02:58:33;;;;;;;10.40;9.40;;;;;;;;;;5093053;28;20494;-61
2023/08/20 03:00:59;;;;;;;11.07;9.90;;;;;;;;;;5093328;28;20418;-61
2023/08/20 03:03:25;;;;;;;10.63;9.83;;;;;;;;;;5093358;28;20413;-61
2023/08/20 03:05:51;;;;;;;11.33;10.43;;;;;;;;;;5093261;28;20453;-61
2023/08/20 03:08:22;;;;;;;10.80;10.10;;;;;;;;;;5093117;28;20425;-61
2023/08/20 03:10:51;;;;;;;12.27;10.23;;;;;;;;;;5093061;28;20469;-61
2023/08/20 03:13:17;;;;;;;14.50;10.53;;;;;;;;;;5092906;28;20426;-61
2023/08/20 03:15:43;;;;;;;10.37;9.40;;;;;;;;;;5093031;28;20447;-61
2023/08/20 03:18:09;;;;;;;10.40;9.37;;;;;;;;;;5093184;28;20452;-61
2023/08/20 03:20:35;;;;;;;14.97;10.60;;;;;;;;;;5093104;28;20467;-61
2023/08/20 03:23:01;;;;;;;12.60;10.10;;;;;;;;;;5092883;28;20407;-62
2023/08/20 03:25:30;;;;;;;10.23;9.53;;;;;;;;;;5092991;28;20438;-62
2023/08/20 03:28:00;;;;;;;12.00;10.40;;;;;;;;;;5092821;28;20425;-62
2023/08/20 03:30:28;;;;;;;10.63;9.80;;;;;;;;;;5092947;28;20841;-61
2023/08/20 03:32:57;;;;;;;15.23;10.97;;;;;;;;;;5092777;28;20411;-61
2023/08/20 03:35:26;;;;;;;10.50;9.63;;;;;;;;;;5092542;28;21244;-61
2023/08/20 03:37:52;;;;;;;16.33;10.17;;;;;;;;;;5092727;28;20399;-61
2023/08/20 03:40:18;;;;;;;10.90;9.90;;;;;;;;;;5092626;28;20789;-61
2023/08/20 03:42:44;;;;;;;11.63;10.60;;;;;;;;;;5092681;28;20453;-61
2023/08/20 03:45:10;;;;;;;11.87;9.83;;;;;;;;;;5092530;28;20412;-61
2023/08/20 03:47:39;;;;;;;11.30;10.07;;;;;;;;;;5092598;28;20412;-61
2023/08/20 03:50:05;;;;;;;12.13;10.57;;;;;;;;;;5092598;28;20430;-62
2023/08/20 03:52:33;;;;;;;11.53;10.43;;;;;;;;;;5091230;28;20467;-62
2023/08/20 03:54:59;;;;;;;11.30;10.23;;;;;;;;;;5092646;28;20485;-62
2023/08/20 03:57:25;;;;;;;15.43;9.73;;;;;;;;;;5092467;28;20411;-61
2023/08/20 03:59:53;;;;;;;11.53;10.50;;;;;;;;;;5092379;28;20432;-61
2023/08/20 04:02:19;;;;;;;12.30;10.00;;;;;;;;;;5092757;28;20832;-61
2023/08/20 04:04:48;;;;;;;10.87;9.93;;;;;;;;;;5092378;28;20408;-61
2023/08/20 04:07:14;;;;;;;13.80;10.53;;;;;;;;;;5092411;28;20899;-62
2023/08/20 04:09:41;;;;;;;11.23;10.27;;;;;;;;;;5093425;28;20418;-62
2023/08/20 04:12:07;;;;;;;11.00;10.20;;;;;;;;;;5096410;28;20470;-62
2023/08/20 04:14:33;;;;;;;10.90;9.97;;;;;;;;;;5096444;28;20407;-62
2023/08/20 04:16:59;;;;;;;10.43;8.80;;;;;;;;;;5096476;28;20458;-61
2023/08/20 04:19:25;;;;;;;10.87;9.97;;;;;;;;;;5096361;28;20417;-61
2023/08/20 04:21:51;;;;;;;16.63;10.50;;;;;;;;;;5096487;28;20403;-61
2023/08/20 04:24:17;;;;;;;12.23;9.23;;;;;;;;;;5095927;28;20504;-66
2023/08/20 04:26:43;;;;;;;10.30;9.30;;;;;;;;;;5096163;28;20521;-66
2023/08/20 04:29:09;;;;;;;10.87;9.80;;;;;;;;;;5095003;28;20929;-66
2023/08/20 04:31:35;;;;;;;11.40;10.23;;;;;;;;;;5096016;28;20525;-66
2023/08/20 04:34:01;;;;;;;11.00;10.20;;;;;;;;;;5094571;28;20900;-66
2023/08/20 04:36:27;;;;;;;10.40;9.60;;;;;;;;;;5095954;28;20483;-66
2023/08/20 04:38:53;;;;;;;11.47;10.37;;;;;;;;;;5095846;28;20410;-66
2023/08/20 04:41:19;;;;;;;10.60;9.87;;;;;;;;;;5095782;28;20442;-66
2023/08/20 04:43:45;;;;;;;11.73;10.40;;;;;;;;;;5095793;28;20431;-66
2023/08/20 04:46:11;;;;;;;10.50;9.20;;;;;;;;;;5095829;28;20416;-66
2023/08/20 04:48:40;;;;;;;10.93;9.90;;;;;;;;;;5095663;28;20445;-66
2023/08/20 04:51:06;;;;;;;14.03;10.70;;;;;;;;;;5095660;28;21040;-66
2023/08/20 04:53:32;;;;;;;42.67;30.53;;;;;;;;;;5094450;28;20858;-66
2023/08/20 04:55:59;;;;;;;83.50;51.60;;;;;;;;;;5095480;28;20460;-66
2023/08/20 04:58:25;;;;;;;21.27;16.20;;;;;;;;;;5094094;28;20428;-66
2023/08/20 05:00:51;;;;;;;43.07;28.00;;;;;;;;;;5095356;28;20452;-66
2023/08/20 05:03:17;;;;;;;27.07;20.97;;;;;;;;;;5095456;28;20919;-66
2023/08/20 05:05:48;;;;;;;23.13;18.17;;;;;;;;;;5095397;28;20431;-66
2023/08/20 05:08:16;;;;;;;14.50;13.10;;;;;;;;;;5093841;28;20410;-66
2023/08/20 05:10:42;;;;;;;54.63;33.13;;;;;;;;;;5095202;28;20481;-66
2023/08/20 05:13:09;;;;;;;56.83;27.03;;;;;;;;;;5093982;28;20439;-66
2023/08/20 05:15:35;;;;;;;14.30;9.67;;;;;;;;;;5095127;28;20900;-66
2023/08/20 05:18:01;;;;;;;11.87;10.10;;;;;;;;;;5095260;28;20433;-66
2023/08/20 05:20:27;;;;;;;11.90;10.67;;;;;;;;;;5093697;28;20425;-66
2023/08/20 05:22:53;;;;;;;18.10;8.90;;;;;;;;;;5093955;28;20973;-66
2023/08/20 05:25:19;;;;;;;11.43;10.03;;;;;;;;;;5093839;28;20472;-66
2023/08/20 05:27:45;;;;;;;10.40;9.37;;;;;;;;;;5094960;28;20486;-66
2023/08/20 05:30:11;;;;;;;10.10;9.30;;;;;;;;;;5094752;28;20499;-66
2023/08/20 05:32:40;;;;;;;10.37;9.37;;;;;;;;;;5095092;28;20526;-66
2023/08/20 05:35:06;;;;;;;10.07;9.27;;;;;;;;;;5095004;28;20778;-66
2023/08/20 05:37:32;;;;;;;10.37;9.47;;;;;;;;;;5094868;28;20415;-66
2023/08/20 05:40:00;;;;;;;13.80;9.37;;;;;;;;;;5094772;28;20427;-66
2023/08/20 05:42:26;;;;;;;13.87;10.20;;;;;;;;;;5094841;28;20463;-66
2023/08/20 05:44:53;;;;;;;10.30;9.40;;;;;;;;;;5094416;28;20455;-66
2023/08/20 05:47:19;;;;;;;12.77;10.70;;;;;;;;;;5094757;28;20947;-66
2023/08/20 05:49:45;;;;;;;12.13;10.60;;;;;;;;;;5094432;28;20444;-66
2023/08/20 05:52:10;;;;;;;11.80;8.80;;;;;;;;;;5094489;28;20570;-66
2023/08/20 05:54:36;;;;;;;12.57;9.30;;;;;;;;;;5093375;28;20510;-66
2023/08/20 05:57:02;;;;;;;12.47;9.50;;;;;;;;;;5094442;28;20443;-66
2023/08/20 05:59:33;;;;;;;11.73;10.00;;;;;;;;;;5094759;28;20431;-65
2023/08/20 06:02:01;;;;;;;10.10;9.10;;;;;;;;;;5094474;28;20451;-66
2023/08/20 06:04:27;;;;;;;11.30;9.67;;;;;;;;;;5094596;28;20426;-66
2023/08/20 06:06:53;;;;;;;12.00;10.50;;;;;;;;;;5092938;28;20730;-66
2023/08/20 06:09:19;;;;;;;13.40;10.00;;;;;;;;;;5094357;28;20426;-67
2023/08/20 06:11:45;;;;;;;9.33;8.63;;;;;;;;;;5094137;28;20472;-66
2023/08/20 06:14:11;;;;;;;10.83;8.90;;;;;;;;;;5094236;28;20406;-66
2023/08/20 06:16:37;;;;;;;11.07;9.93;;;;;;;;;;5092654;28;20953;-66
2023/08/20 06:19:03;;;;;;;10.37;9.37;;;;;;;;;;5094046;28;20419;-66
2023/08/20 06:21:32;;;;;;;10.27;9.10;;;;;;;;;;5093858;28;20469;-66
2023/08/20 06:23:58;;;;;;;10.27;9.00;;;;;;;;;;5093801;28;20419;-66
2023/08/20 06:26:24;;;;;;;9.97;9.00;;;;;;;;;;5093622;28;20414;-66
2023/08/20 06:28:52;;;;;;;9.70;8.90;;;;;;;;;;5092421;28;20402;-66
2023/08/20 06:31:18;;;;;;;11.87;10.70;;;;;;;;;;5093652;28;20475;-66
2023/08/20 06:33:47;;;;;;;10.60;9.10;;;;;;;;;;5092894;28;20450;-66
2023/08/20 06:36:13;;;;;;;10.77;9.37;;;;;;;;;;5093300;28;20406;-66
2023/08/20 06:38:39;;;;;;;9.57;8.90;;;;;;;;;;5093532;28;20416;-66
2023/08/20 06:41:05;;;;;;;12.67;9.80;;;;;;;;;;5093508;28;20414;-66
2023/08/20 06:43:31;;;;;;;13.37;10.37;;;;;;;;;;5093298;28;20497;-66
2023/08/20 06:45:57;;;;;;;10.87;9.83;;;;;;;;;;5092047;28;20419;-66
2023/08/20 06:48:24;;;;;;;22.67;19.93;;;;;;;;;;5091713;28;20432;-66
2023/08/20 06:50:50;;;;;;;12.23;11.27;;;;;;;;;;5093363;28;21097;-66
2023/08/20 06:53:16;;;;;;;17.60;12.00;;;;;;;;;;5092027;28;20408;-66
2023/08/20 06:55:44;;;;;;;15.80;14.27;;;;;;;;;;5093451;28;20432;-66
2023/08/20 06:58:10;;;;;;;12.00;10.80;;;;;;;;;;5093693;28;20416;-66
2023/08/20 07:00:37;;;;;;;17.87;10.53;;;;;;;;;;5092201;28;20420;-66
2023/08/20 07:03:03;;;;;;;10.73;9.90;;;;;;;;;;5093436;28;20500;-67
2023/08/20 07:05:29;;;;;;;12.17;11.07;;;;;;;;;;5093160;28;20436;-66
2023/08/20 07:07:55;;;;;;;11.50;10.50;;;;;;;;;;5092846;28;20451;-66
2023/08/20 07:10:21;;;;;;;12.10;9.83;;;;;;;;;;5092957;28;20508;-66
2023/08/20 07:12:47;;;;;;;11.50;10.50;;;;;;;;;;5093201;28;20448;-66
2023/08/20 07:15:13;;;;;;;12.47;11.20;;;;;;;;;;5092032;28;20853;-66
2023/08/20 07:17:39;;;;;;;11.27;10.37;;;;;;;;;;5093557;28;20794;-66
2023/08/20 07:20:05;;;;;;;12.30;11.23;;;;;;;;;;5093197;28;20819;-66
2023/08/20 07:22:31;;;;;;;12.63;11.40;;;;;;;;;;5074819;28;20443;-66
2023/08/20 07:25:02;;;;;;;13.57;11.07;;;;;;;;;;5091621;28;20977;-67
2023/08/20 07:27:28;;;;;;;12.57;11.33;;;;;;;;;;5092652;28;20470;-67
2023/08/20 07:29:54;;;;;;;13.73;11.00;;;;;;;;;;5092577;28;20430;-67
2023/08/20 07:32:23;;;;;;;12.10;10.73;;;;;;;;;;5092829;28;20475;-67
2023/08/20 07:34:49;;;;;;;14.30;11.57;;;;;;;;;;5092744;28;20440;-67
2023/08/20 07:37:15;;;;;;;22.37;15.90;;;;;;;;;;5091372;28;20479;-67
2023/08/20 07:39:44;;;;;;;35.30;22.60;;;;;;;;;;5092946;28;20392;-67
2023/08/20 07:42:10;;;;;;;115.37;75.30;;;;;;;;;;5092514;28;20423;-67
2023/08/20 07:44:36;;;;;;;38.87;30.43;;;;;;;;;;5091794;28;20795;-67
2023/08/20 07:47:05;;;;;;;33.20;24.03;;;;;;;;;;5092449;28;20424;-67
2023/08/20 07:49:31;;;;;;;20.63;15.07;;;;;;;;;;5092667;28;20401;-67
2023/08/20 07:51:57;;;;;;;11.73;10.63;;;;;;;;;;5090679;28;20468;-67
2023/08/20 07:54:26;;;;;;;39.97;32.33;;;;;;;;;;5091846;28;20421;-66
2023/08/20 07:56:52;;;;;;;12.80;11.70;;;;;;;;;;5089995;28;20464;-67
2023/08/20 07:59:18;;;;;;;17.67;11.50;;;;;;;;;;5091504;28;20441;-67
2023/08/20 08:01:44;;;;;;;12.73;10.30;;;;;;;;;;5090433;28;20514;-66
2023/08/20 08:04:10;;;;;;;15.97;10.40;;;;;;;;;;5091994;28;20421;-66
2023/08/20 08:06:38;;;;;;;17.40;10.90;;;;;;;;;;5092207;28;20425;-66
2023/08/20 08:09:21;;;;;;;10.80;10.00;;;;;;;;;;5090970;28;20460;-66
2023/08/20 08:11:47;;;;;;;11.27;9.90;;;;;;;;;;5092314;28;20479;-67
2023/08/20 08:14:13;;;;;;;9.67;8.40;;;;;;;;;;5092094;28;20532;-67
2023/08/20 08:16:39;;;;;;;12.90;10.03;;;;;;;;;;5092445;28;20402;-67
2023/08/20 08:19:05;;;;;;;10.40;9.53;;;;;;;;;;5091963;28;20425;-67
2023/08/20 08:21:31;;;;;;;11.67;10.47;;;;;;;;;;5092311;28;20405;-67
2023/08/20 08:23:57;;;;;;;10.87;9.97;;;;;;;;;;5092531;28;20473;-67
2023/08/20 08:26:23;;;;;;;10.73;9.83;;;;;;;;;;5092303;28;20406;-68
2023/08/20 08:28:49;;;;;;;10.70;8.67;;;;;;;;;;5092079;28;20436;-68
2023/08/20 08:31:15;;;;;;;13.73;9.33;;;;;;;;;;5092141;28;20959;-67
2023/08/20 08:33:41;;;;;;;9.60;8.53;;;;;;;;;;5092293;28;20431;-67
2023/08/20 08:36:07;;;;;;;9.17;8.37;;;;;;;;;;5092071;28;20428;-68
2023/08/20 08:38:33;;;;;;;9.67;8.97;;;;;;;;;;5092534;28;20440;-65
2023/08/20 08:41:00;;;;;;;10.00;9.00;;;;;;;;;;5092153;28;20462;-66
2023/08/20 08:43:28;;;;;;;10.03;9.17;;;;;;;;;;5091952;28;20479;-65
2023/08/20 08:45:54;;;;;;;10.17;9.23;;;;;;;;;;5092123;28;20402;-67
2023/08/20 08:48:23;;;;;;;9.13;8.53;;;;;;;;;;5091972;28;20433;-68
2023/08/20 08:50:49;;;;;;;9.13;8.30;;;;;;;;;;5092078;28;20445;-67
2023/08/20 08:53:15;;;;;;;9.50;8.53;;;;;;;;;;5091735;28;20919;-66
2023/08/20 08:55:41;;;;;;;9.20;8.57;;;;;;;;;;5092570;28;20412;-65
2023/08/20 08:58:10;;;;;;;8.20;7.70;;;;;;;;;;5095371;28;20452;-67
2023/08/20 09:00:38;;;;;;;8.43;7.73;;;;;;;;;;5095499;28;20441;-67
2023/08/20 09:03:04;;;;;;;10.27;7.80;;;;;;;;;;5095155;28;20710;-68
2023/08/20 09:05:30;;;;;;;8.67;7.60;;;;;;;;;;5095612;28;20802;-67
2023/08/20 09:07:59;;;;;;;7.83;6.90;;;;;;;;;;5095543;28;20409;-67
2023/08/20 09:10:28;;;;;;;16.37;8.20;;;;;;;;;;5094996;28;20429;-67
2023/08/20 09:12:58;;;;;;;13.60;7.80;;;;;;;;;;5092941;28;20433;-67
2023/08/20 09:15:30;;;;;;;8.90;8.00;;;;;;;;;;5094311;28;20406;-67
2023/08/20 09:18:01;;;;;;;8.63;7.80;;;;;;;;;;5094546;28;20456;-67
2023/08/20 09:20:36;;;;;;;8.20;7.40;;;;;;;;;;5093241;28;20429;-68
2023/08/20 09:23:05;;;;;;;10.23;7.23;;;;;;;;;;5095318;28;20562;-65
2023/08/20 09:25:33;;;;;;;8.60;7.80;;;;;;;;;;5094784;28;20759;-67
2023/08/20 09:28:03;;;;;;;11.80;8.20;;;;;;;;;;5094762;28;20425;-67
2023/08/20 09:30:29;;;;;;;19.33;17.40;;;;;;;;;;5095139;28;20410;-67
2023/08/20 09:33:21;;;;;;;9.53;8.73;;;;;;;;;;5095024;28;20744;-65
2023/08/20 09:35:56;;;;;;;11.73;10.77;;;;;;;;;;5092409;28;20436;-65
2023/08/20 09:38:22;;;;;;;14.87;13.77;;;;;;;;;;5095003;28;20416;-66
2023/08/20 09:40:50;;;;;;;7.70;7.20;;;;;;;;;;5093707;28;20784;-66
2023/08/20 09:43:19;;;;;;;7.27;6.70;;;;;;;;;;5094542;28;20474;-66
2023/08/20 09:45:47;;;;;;;7.70;7.30;;;;;;;;;;5094560;28;20452;-66
2023/08/20 09:48:14;;;;;;;6.23;5.73;;;;;;;;;;5094572;28;20828;-66
2023/08/20 09:50:40;;;;;;;8.33;7.07;;;;;;;;;;5094379;28;20536;-66
2023/08/20 09:53:18;;;;;;;7.93;6.33;;;;;;;;;;5094718;28;20737;-65
2023/08/20 09:55:44;;;;;;;16.97;6.70;;;;;;;;;;5094617;28;20381;-66
2023/08/20 09:58:13;;;;;;;7.13;6.70;;;;;;;;;;5094185;28;20793;-66
2023/08/20 10:00:39;;;;;;;7.30;6.87;;;;;;;;;;5094490;28;20979;-66
2023/08/20 10:03:05;;;;;;;6.50;6.20;;;;;;;;;;5094107;28;20510;-65
2023/08/20 10:05:33;;;;;;;11.20;7.60;;;;;;;;;;5094276;28;20441;-65
2023/08/20 10:07:59;;;;;;;15.30;12.40;;;;;;;;;;5093517;28;20421;-65
2023/08/20 10:10:26;;;;;;;10.53;9.43;;;;;;;;;;5094019;28;20529;-65
2023/08/20 10:12:52;;;;;;;7.50;7.00;;;;;;;;;;5093926;28;20424;-65
2023/08/20 10:15:18;;;;;;;257.20;182.53;;;;;;;;;;5093748;28;20431;-65
2023/08/20 10:17:46;;;;;;;10.83;9.70;;;;;;;;;;5094054;28;20502;-65
2023/08/20 10:20:15;;;;;;;34.77;25.77;;;;;;;;;;5093974;28;20820;-66
2023/08/20 10:22:45;;;;;;;7.37;6.67;;;;;;;;;;5094012;28;20460;-66
2023/08/20 10:25:12;;;;;;;6.50;6.10;;;;;;;;;;5093760;28;20417;-66
2023/08/20 10:27:39;;;;;;;6.37;5.87;;;;;;;;;;5093715;28;20459;-66
2023/08/20 10:30:25;;;;;;;6.57;6.27;;;;;;;;;;5093999;28;20452;-65
2023/08/20 10:33:03;;;;;;;6.43;6.03;;;;;;;;;;5093852;28;20413;-66
2023/08/20 10:35:46;;;;;;;8.00;7.30;;;;;;;;;;5094008;28;20448;-68
2023/08/20 10:38:13;;;;;;;11.33;6.90;;;;;;;;;;5093501;28;20724;-65
2023/08/20 10:40:53;;;;;;;6.90;6.40;;;;;;;;;;5093503;28;20421;-66
2023/08/20 10:43:36;;;;;;;8.87;6.07;;;;;;;;;;5093351;28;20413;-66
2023/08/20 10:46:11;;;;;;;6.27;5.90;;;;;;;;;;5093418;28;20432;-67
2023/08/20 10:48:39;;;;;;;6.50;5.90;;;;;;;;;;5093331;28;20837;-66
2023/08/20 10:51:07;;;;;;;8.50;7.70;;;;;;;;;;5093351;28;20468;-67
2023/08/20 10:53:34;;;;;;;7.43;6.83;;;;;;;;;;5093125;28;20405;-67
2023/08/20 10:56:10;;;;;;;7.20;6.60;;;;;;;;;;5093067;28;20405;-67
2023/08/20 10:58:39;;;;;;;9.33;6.20;;;;;;;;;;5093242;28;20482;-67
2023/08/20 11:01:15;;;;;;;6.53;6.20;;;;;;;;;;5093456;28;20808;-66
2023/08/20 11:03:42;;;;;;;6.50;5.93;;;;;;;;;;5092956;28;20904;-66
2023/08/20 11:06:08;;;;;;;7.70;7.00;;;;;;;;;;5093101;28;20879;-66
2023/08/20 11:08:34;;;;;;;7.00;6.50;;;;;;;;;;5093202;28;20413;-66
2023/08/20 11:11:01;;;;;;;8.17;6.03;;;;;;;;;;5092895;28;20893;-66
2023/08/20 11:13:27;;;;;;;6.73;6.07;;;;;;;;;;5093063;28;20509;-66
2023/08/20 11:15:53;;;;;;;7.87;7.20;;;;;;;;;;5092823;28;20523;-66
2023/08/20 11:18:19;;;;;;;6.70;6.20;;;;;;;;;;5092823;28;20979;-66
2023/08/20 11:20:45;;;;;;;7.40;6.73;;;;;;;;;;5092959;28;20524;-66
2023/08/20 11:23:13;;;;;;;7.37;6.73;;;;;;;;;;5093005;28;20409;-66
2023/08/20 11:25:43;;;;;;;7.77;6.87;;;;;;;;;;5092726;28;20429;-66
2023/08/20 11:28:09;;;;;;;6.40;5.83;;;;;;;;;;5092690;28;20768;-65
2023/08/20 11:30:35;;;;;;;6.57;6.10;;;;;;;;;;5092878;28;20516;-65
2023/08/20 11:33:02;;;;;;;7.80;7.10;;;;;;;;;;5092714;28;20972;-65
2023/08/20 11:35:28;;;;;;;7.90;7.30;;;;;;;;;;5092490;28;20432;-65
2023/08/20 11:37:54;;;;;;;9.30;7.33;;;;;;;;;;5092489;28;20437;-65
2023/08/20 11:40:23;;;;;;;6.83;6.10;;;;;;;;;;5092728;28;20515;-65
2023/08/20 11:42:49;;;;;;;12.70;5.90;;;;;;;;;;5091730;28;20440;-65
2023/08/20 11:45:15;;;;;;;6.83;6.33;;;;;;;;;;5092557;28;20414;-65
2023/08/20 11:47:41;;;;;;;7.03;6.50;;;;;;;;;;5092438;28;20549;-66
2023/08/20 11:50:08;;;;;;;6.97;6.60;;;;;;;;;;5092560;28;20449;-65
2023/08/20 11:52:34;;;;;;;6.10;5.80;;;;;;;;;;5092431;28;21005;-66
2023/08/20 11:55:00;;;;;;;7.47;6.90;;;;;;;;;;5092600;28;20896;-66
2023/08/20 11:57:28;;;;;;;10.27;6.17;;;;;;;;;;5092812;28;20423;-66
2023/08/20 12:00:03;;;;;;;14.13;6.17;;;;;;;;;;5091118;28;20433;-67
2023/08/20 12:02:32;;;;;;;12.20;6.30;;;;;;;;;;5092731;28;20795;-67
2023/08/20 12:05:00;;;;;;;6.63;6.03;;;;;;;;;;5092054;28;20757;-67
2023/08/20 12:07:27;;;;;;;6.20;5.80;;;;;;;;;;5092992;28;20429;-67
2023/08/20 12:09:53;;;;;;;5.53;5.33;;;;;;;;;;5092392;28;20413;-67
2023/08/20 12:12:20;;;;;;;6.00;5.60;;;;;;;;;;5092063;28;20474;-67
2023/08/20 12:14:46;;;;;;;6.73;6.10;;;;;;;;;;5092102;28;20765;-67
2023/08/20 12:17:12;;;;;;;6.70;6.17;;;;;;;;;;5092286;28;20524;-67
2023/08/20 12:19:38;;;;;;;7.60;6.03;;;;;;;;;;5092449;28;20491;-66
2023/08/20 12:22:08;;;;;;;6.20;5.70;;;;;;;;;;5092134;28;20433;-66
2023/08/20 12:24:39;;;;;;;7.93;6.33;;;;;;;;;;5092739;28;20290;-66
2023/08/20 12:27:05;;;;;;;6.40;5.90;;;;;;;;;;5091710;28;20453;-63
2023/08/20 12:29:33;;;;;;;7.93;6.07;;;;;;;;;;5092356;28;20414;-63
2023/08/20 12:32:01;;;;;;;6.53;5.93;;;;;;;;;;5095469;28;20559;-63
2023/08/20 12:34:29;;;;;;;6.70;5.90;;;;;;;;;;5096356;28;20427;-63
2023/08/20 12:36:57;;;;;;;6.90;6.30;;;;;;;;;;5096291;28;20482;-63
2023/08/20 12:39:23;;;;;;;5.73;5.13;;;;;;;;;;5096448;28;20398;-63
2023/08/20 12:41:49;;;;;;;5.57;5.27;;;;;;;;;;5096051;28;20482;-63
2023/08/20 12:44:17;;;;;;;6.70;6.03;;;;;;;;;;5096036;28;20191;-63
2023/08/20 12:46:45;;;;;;;16.70;15.13;;;;;;;;;;5095856;28;20452;-62
2023/08/20 12:49:14;;;;;;;18.10;15.03;;;;;;;;;;5095753;28;20413;-63
2023/08/20 12:51:40;;;;;;;6.90;6.20;;;;;;;;;;5095886;28;20464;-62
2023/08/20 12:54:06;;;;;;;6.07;5.67;;;;;;;;;;5096071;28;20409;-63
2023/08/20 12:56:32;;;;;;;23.23;20.37;;;;;;;;;;5095965;28;20713;-62
2023/08/20 12:59:00;;;;;;;25.33;20.57;;;;;;;;;;5095903;28;20444;-63
2023/08/20 13:01:26;;;;;;;19.17;14.27;;;;;;;;;;5095714;28;20606;-63
2023/08/20 13:03:52;;;;;;;21.03;19.03;;;;;;;;;;5096024;28;20892;-63
2023/08/20 13:06:18;;;;;;;8.43;5.80;;;;;;;;;;5095656;28;20243;-63
2023/08/20 13:08:44;;;;;;;5.67;5.00;;;;;;;;;;5095673;28;20500;-63
2023/08/20 13:11:11;;;;;;;4.73;4.53;;;;;;;;;;5095464;28;20559;-63
2023/08/20 13:13:37;;;;;;;5.30;4.93;;;;;;;;;;5095678;28;20441;-64
2023/08/20 13:16:04;;;;;;;5.27;4.77;;;;;;;;;;5095684;28;20406;-63
2023/08/20 13:18:30;;;;;;;6.80;4.70;;;;;;;;;;5095763;28;20405;-63
2023/08/20 13:20:58;;;;;;;5.80;4.70;;;;;;;;;;5095510;28;20425;-63
2023/08/20 13:23:24;;;;;;;5.70;5.40;;;;;;;;;;5095354;28;21005;-63
2023/08/20 13:25:50;;;;;;;13.17;4.93;;;;;;;;;;5095608;28;20394;-63
2023/08/20 13:28:17;;;;;;;6.10;5.70;;;;;;;;;;5095409;28;20440;-63
2023/08/20 13:30:43;;;;;;;6.30;5.07;;;;;;;;;;5095100;28;20685;-63
2023/08/20 13:33:09;;;;;;;12.03;5.20;;;;;;;;;;5095198;28;20946;-62
2023/08/20 13:35:35;;;;;;;11.50;5.50;;;;;;;;;;5095137;28;20445;-63
2023/08/20 13:38:02;;;;;;;5.63;5.23;;;;;;;;;;5094974;28;20436;-62
2023/08/20 13:40:28;;;;;;;7.37;5.57;;;;;;;;;;5095359;28;20830;-62
2023/08/20 13:42:54;;;;;;;6.07;5.63;;;;;;;;;;5093774;28;20441;-63
2023/08/20 13:45:20;;;;;;;9.07;5.20;;;;;;;;;;5095193;28;20198;-63
2023/08/20 13:47:46;;;;;;;5.67;5.37;;;;;;;;;;5095139;28;20444;-63
2023/08/20 13:50:12;;;;;;;6.60;5.00;;;;;;;;;;5094952;28;20424;-63
2023/08/20 13:52:38;;;;;;;4.90;4.60;;;;;;;;;;5094815;28;20480;-64
2023/08/20 13:55:04;;;;;;;5.57;5.37;;;;;;;;;;5094829;28;20266;-63
2023/08/20 13:57:33;;;;;;;5.87;5.47;;;;;;;;;;5094916;28;20433;-63
2023/08/20 14:00:01;;;;;;;6.30;5.93;;;;;;;;;;5094582;28;20467;-63
2023/08/20 14:02:29;;;;;;;7.13;6.10;;;;;;;;;;5094848;28;20851;-65
2023/08/20 14:04:55;;;;;;;5.83;5.20;;;;;;;;;;5094988;28;20428;-63
2023/08/20 14:07:23;;;;;;;5.53;5.03;;;;;;;;;;5094435;28;20441;-63
2023/08/20 14:09:51;;;;;;;4.77;4.40;;;;;;;;;;5093414;28;20179;-62
2023/08/20 14:12:17;;;;;;;5.97;5.53;;;;;;;;;;5094298;28;20495;-63
2023/08/20 14:14:43;;;;;;;7.73;4.80;;;;;;;;;;5094361;28;20944;-63
2023/08/20 14:17:11;;;;;;;4.57;4.37;;;;;;;;;;5094225;28;20429;-63
2023/08/20 14:19:37;;;;;;;5.03;4.53;;;;;;;;;;5094185;28;20187;-63
2023/08/20 14:22:07;;;;;;;4.90;4.60;;;;;;;;;;5092674;28;20563;-63
2023/08/20 14:24:33;;;;;;;8.43;5.00;;;;;;;;;;5093976;28;20171;-63
2023/08/20 14:26:58;;;;;;;4.87;4.50;;;;;;;;;;5094048;28;20405;-64
2023/08/20 14:29:27;;;;;;;4.60;4.30;;;;;;;;;;5093786;28;20466;-64
2023/08/20 14:31:53;;;;;;;9.13;5.20;;;;;;;;;;5093848;28;20795;-64